createdAt,value
2023-03-26T00:02:25.121Z,21.86
2023-03-26T00:04:51.553Z,21.88
2023-03-26T00:07:17.854Z,21.89
2023-03-26T00:09:44.148Z,21.90
2023-03-26T00:12:10.516Z,21.91
2023-03-26T00:14:36.835Z,21.89
2023-03-26T00:17:03.179Z,21.91
2023-03-26T00:19:29.533Z,21.88
2023-03-26T00:21:55.946Z,21.88
2023-03-26T00:24:22.244Z,21.88
2023-03-26T00:26:48.586Z,21.85
2023-03-26T00:29:15.102Z,21.83
2023-03-26T00:31:41.409Z,21.87
2023-03-26T00:34:07.750Z,21.82
2023-03-26T00:36:34.128Z,21.83
2023-03-26T00:39:00.435Z,21.85
2023-03-26T00:41:26.941Z,21.86
2023-03-26T00:43:53.459Z,21.88
2023-03-26T00:46:19.881Z,21.82
2023-03-26T00:48:46.337Z,21.87
2023-03-26T00:51:12.661Z,21.89
2023-03-26T00:53:39.055Z,21.85
2023-03-26T00:56:05.431Z,21.82
2023-03-26T00:58:31.788Z,21.83
2023-03-26T01:00:58.152Z,21.82
2023-03-26T01:03:26.975Z,21.89
2023-03-26T01:05:54.756Z,21.85
2023-03-26T01:08:21.223Z,21.85
2023-03-26T01:10:47.550Z,21.85
2023-03-26T01:13:13.856Z,21.86
2023-03-26T01:15:40.184Z,21.83
2023-03-26T01:18:06.566Z,21.84
2023-03-26T01:20:32.925Z,21.79
2023-03-26T01:22:59.279Z,21.86
2023-03-26T01:25:25.654Z,21.80
2023-03-26T01:27:52.046Z,21.81
2023-03-26T01:30:18.454Z,21.84
2023-03-26T01:32:44.862Z,21.86
2023-03-26T01:35:11.270Z,21.84
2023-03-26T01:37:37.615Z,21.82
2023-03-26T01:40:03.955Z,21.82
2023-03-26T01:42:30.344Z,21.78
2023-03-26T01:44:56.641Z,21.80
2023-03-26T01:47:23.003Z,21.75
2023-03-26T01:49:49.381Z,21.71
2023-03-26T01:52:15.739Z,21.74
2023-03-26T01:54:42.115Z,21.73
2023-03-26T01:57:08.524Z,21.76
2023-03-26T01:59:34.918Z,21.76
2023-03-26T02:02:01.395Z,21.66
2023-03-26T02:04:27.748Z,21.69
2023-03-26T02:06:54.057Z,21.70
2023-03-26T02:09:20.413Z,21.76
2023-03-26T02:11:46.775Z,21.77
2023-03-26T02:14:13.097Z,21.76
2023-03-26T02:16:39.511Z,21.75
2023-03-26T02:19:05.852Z,21.66
2023-03-26T02:21:32.183Z,21.64
2023-03-26T02:23:58.505Z,21.69
2023-03-26T02:26:24.867Z,21.61
2023-03-26T02:28:51.183Z,21.72
2023-03-26T02:31:17.502Z,21.61
2023-03-26T02:33:43.867Z,21.70
2023-03-26T02:36:10.360Z,21.71
2023-03-26T02:38:36.797Z,21.66
2023-03-26T02:41:03.155Z,21.64
2023-03-26T02:43:29.452Z,21.66
2023-03-26T02:45:56.002Z,21.61
2023-03-26T02:48:22.698Z,21.64
2023-03-26T02:50:49.010Z,21.61
2023-03-26T02:53:15.320Z,21.66
2023-03-26T02:55:41.662Z,21.63
2023-03-26T02:58:08.010Z,21.66
2023-03-26T03:00:34.374Z,21.64
2023-03-26T03:03:00.790Z,21.61
2023-03-26T03:05:27.194Z,21.63
2023-03-26T03:07:53.519Z,21.61
2023-03-26T03:10:19.863Z,21.66
2023-03-26T03:12:46.273Z,21.64
2023-03-26T03:15:12.616Z,21.74
2023-03-26T03:17:39.001Z,21.75
2023-03-26T03:20:05.345Z,21.71
2023-03-26T03:22:31.687Z,21.68
2023-03-26T03:24:58.011Z,21.63
2023-03-26T03:27:24.510Z,21.72
2023-03-26T03:29:50.803Z,21.70
2023-03-26T03:32:17.140Z,21.76
2023-03-26T03:34:43.500Z,21.73
2023-03-26T03:37:09.861Z,21.70
2023-03-26T03:39:36.181Z,21.69
2023-03-26T03:42:02.557Z,21.70
2023-03-26T03:44:28.937Z,21.75
2023-03-26T03:46:55.248Z,21.72
2023-03-26T03:49:21.592Z,21.74
2023-03-26T03:51:47.911Z,21.73
2023-03-26T03:54:14.241Z,21.73
2023-03-26T03:56:40.586Z,21.71
2023-03-26T03:59:06.961Z,21.69
2023-03-26T04:01:33.315Z,21.66
2023-03-26T04:03:59.656Z,21.66
2023-03-26T04:06:26.061Z,21.68
2023-03-26T04:08:52.402Z,21.66
2023-03-26T04:11:18.750Z,21.71
2023-03-26T04:13:45.107Z,21.71
2023-03-26T04:16:11.477Z,21.69
2023-03-26T04:18:37.888Z,21.63
2023-03-26T04:21:04.264Z,21.66
2023-03-26T04:23:30.661Z,21.72
2023-03-26T04:25:57.139Z,21.70
2023-03-26T04:28:23.609Z,21.62
2023-03-26T04:30:49.916Z,21.67
2023-03-26T04:33:16.278Z,21.71
2023-03-26T04:35:42.643Z,21.70
2023-03-26T04:38:08.941Z,21.68
2023-03-26T04:40:35.282Z,21.58
2023-03-26T04:43:01.669Z,21.63
2023-03-26T04:45:27.973Z,21.61
2023-03-26T04:47:54.337Z,21.64
2023-03-26T04:50:20.731Z,21.61
2023-03-26T04:52:47.094Z,21.68
2023-03-26T04:55:13.401Z,21.61
2023-03-26T04:57:39.713Z,21.61
2023-03-26T05:00:06.017Z,21.64
2023-03-26T05:02:32.421Z,21.66
2023-03-26T05:04:58.808Z,21.60
2023-03-26T05:07:25.125Z,21.57
2023-03-26T05:09:51.471Z,21.61
2023-03-26T05:12:17.804Z,21.59
2023-03-26T05:14:44.168Z,21.63
2023-03-26T05:17:10.466Z,21.60
2023-03-26T05:19:36.762Z,21.61
2023-03-26T05:22:03.163Z,21.60
2023-03-26T05:24:29.508Z,21.56
2023-03-26T05:26:55.802Z,21.61
2023-03-26T05:29:22.112Z,21.60
2023-03-26T05:31:48.398Z,21.53
2023-03-26T05:34:14.757Z,21.60
2023-03-26T05:36:41.058Z,21.60
2023-03-26T05:39:07.409Z,21.59
2023-03-26T05:41:33.715Z,21.66
2023-03-26T05:44:00.007Z,21.61
2023-03-26T05:46:26.394Z,21.60
2023-03-26T05:48:52.742Z,21.59
2023-03-26T05:51:19.105Z,21.58
2023-03-26T05:53:45.401Z,21.63
2023-03-26T05:56:11.715Z,21.56
2023-03-26T05:58:38.044Z,21.50
2023-03-26T06:01:04.337Z,21.52
2023-03-26T06:03:30.790Z,21.57
2023-03-26T06:05:57.190Z,21.56
2023-03-26T06:08:23.525Z,21.58
2023-03-26T06:10:49.843Z,21.58
2023-03-26T06:13:16.160Z,21.57
2023-03-26T06:15:42.533Z,21.55
2023-03-26T06:18:08.984Z,21.60
2023-03-26T06:20:35.331Z,21.56
2023-03-26T06:23:01.785Z,21.60
2023-03-26T06:25:29.214Z,21.66
2023-03-26T06:27:55.549Z,21.64
2023-03-26T06:30:21.898Z,21.69
2023-03-26T06:32:48.351Z,21.76
2023-03-26T06:35:14.704Z,21.74
2023-03-26T06:37:41.052Z,21.75
2023-03-26T06:40:07.379Z,21.75
2023-03-26T06:43:08.873Z,21.76
2023-03-26T06:45:20.011Z,21.70
2023-03-26T06:47:46.348Z,21.72
2023-03-26T06:50:12.740Z,21.69
2023-03-26T06:52:39.073Z,21.74
2023-03-26T06:55:05.408Z,21.68
2023-03-26T06:57:31.713Z,21.75
2023-03-26T06:59:58.054Z,21.69
2023-03-26T07:02:24.398Z,21.76
2023-03-26T07:04:50.715Z,21.72
2023-03-26T07:07:17.006Z,21.67
2023-03-26T07:09:43.301Z,21.72
2023-03-26T07:12:09.629Z,21.72
2023-03-26T07:14:35.930Z,21.72
2023-03-26T07:17:02.329Z,21.66
2023-03-26T07:19:28.672Z,21.69
2023-03-26T07:21:54.977Z,21.68
2023-03-26T07:24:21.261Z,21.63
2023-03-26T07:26:47.702Z,21.68
2023-03-26T07:29:14.067Z,21.52
2023-03-26T07:31:40.420Z,21.58
2023-03-26T07:34:06.733Z,21.61
2023-03-26T07:36:33.109Z,21.62
2023-03-26T07:38:59.398Z,21.65
2023-03-26T07:41:25.701Z,21.62
2023-03-26T07:43:52.062Z,21.68
2023-03-26T07:46:18.492Z,21.65
2023-03-26T07:48:44.825Z,21.70
2023-03-26T07:51:11.147Z,21.73
2023-03-26T07:53:37.518Z,21.73
2023-03-26T07:56:03.861Z,21.74
2023-03-26T07:58:30.306Z,21.70
2023-03-26T08:00:56.743Z,21.72
2023-03-26T08:03:23.372Z,21.73
2023-03-26T08:05:49.823Z,21.74
2023-03-26T08:08:16.162Z,21.68
2023-03-26T08:10:42.522Z,21.70
2023-03-26T08:13:08.821Z,21.73
2023-03-26T08:15:35.171Z,21.74
2023-03-26T08:18:01.532Z,21.74
2023-03-26T08:20:27.940Z,21.75
2023-03-26T08:22:54.282Z,21.72
2023-03-26T08:25:20.599Z,21.66
2023-03-26T08:27:46.883Z,21.63
2023-03-26T08:30:13.180Z,21.64
2023-03-26T08:32:39.521Z,21.72
2023-03-26T08:35:05.860Z,21.74
2023-03-26T08:37:32.211Z,21.74
2023-03-26T08:39:58.548Z,21.76
2023-03-26T08:42:24.910Z,21.74
2023-03-26T08:44:51.253Z,21.71
2023-03-26T08:47:17.607Z,21.75
2023-03-26T08:49:43.920Z,21.73
2023-03-26T08:52:10.315Z,21.76
2023-03-26T08:54:36.667Z,21.74
2023-03-26T08:57:03.049Z,21.75
2023-03-26T08:59:29.456Z,21.75
2023-03-26T09:01:55.848Z,21.77
2023-03-26T09:04:22.196Z,21.72
2023-03-26T09:06:48.541Z,21.69
2023-03-26T09:09:19.217Z,21.72
2023-03-26T09:11:45.884Z,21.66
2023-03-26T09:14:12.196Z,21.71
2023-03-26T09:16:38.553Z,21.72
2023-03-26T09:19:05.062Z,21.72
2023-03-26T09:21:31.375Z,21.73
2023-03-26T09:23:57.715Z,21.76
2023-03-26T09:26:24.075Z,21.76
2023-03-26T09:28:50.444Z,21.70
2023-03-26T09:31:16.837Z,21.75
2023-03-26T09:33:43.153Z,21.65
2023-03-26T09:36:09.598Z,21.73
2023-03-26T09:38:35.894Z,21.71
2023-03-26T09:41:02.219Z,21.73
2023-03-26T09:43:28.558Z,21.75
2023-03-26T09:45:54.881Z,21.77
2023-03-26T09:48:21.386Z,21.70
2023-03-26T09:50:47.685Z,21.74
2023-03-26T09:53:14.021Z,21.72
2023-03-26T09:55:40.332Z,21.71
2023-03-26T09:58:06.817Z,21.72
2023-03-26T10:00:33.188Z,21.72
2023-03-26T10:02:59.585Z,21.66
2023-03-26T10:05:25.951Z,21.70
2023-03-26T10:07:52.248Z,21.67
2023-03-26T10:10:18.543Z,21.70
2023-03-26T10:12:44.929Z,21.68
2023-03-26T10:15:11.274Z,21.75
2023-03-26T10:17:37.627Z,21.68
2023-03-26T10:20:03.965Z,21.72
2023-03-26T10:22:30.263Z,21.71
2023-03-26T10:24:56.612Z,21.73
2023-03-26T10:27:24.670Z,21.77
2023-03-26T10:29:51.185Z,21.75
2023-03-26T10:32:17.636Z,21.76
2023-03-26T10:34:43.937Z,21.80
2023-03-26T10:37:10.268Z,21.74
2023-03-26T10:39:38.990Z,21.69
2023-03-26T10:42:06.447Z,21.78
2023-03-26T10:44:32.749Z,21.79
2023-03-26T10:46:59.092Z,21.77
2023-03-26T10:49:25.473Z,21.77
2023-03-26T10:51:51.792Z,21.75
2023-03-26T10:54:18.109Z,21.84
2023-03-26T10:56:44.423Z,21.89
2023-03-26T10:59:10.777Z,21.95
2023-03-26T11:01:37.096Z,21.93
2023-03-26T11:04:03.522Z,21.83
2023-03-26T11:06:29.918Z,21.79
2023-03-26T11:08:56.280Z,21.88
2023-03-26T11:11:22.630Z,21.93
2023-03-26T11:13:48.994Z,21.85
2023-03-26T11:16:15.397Z,21.93
2023-03-26T11:18:41.755Z,21.79
2023-03-26T11:21:18.653Z,21.82
2023-03-26T11:23:46.751Z,21.90
2023-03-26T11:26:13.068Z,21.87
2023-03-26T11:28:39.377Z,21.83
2023-03-26T11:31:05.767Z,21.97
2023-03-26T11:33:32.571Z,22.10
2023-03-26T11:35:59.349Z,21.97
2023-03-26T11:38:25.689Z,21.92
2023-03-26T11:40:52.063Z,21.85
2023-03-26T11:43:18.515Z,21.85
2023-03-26T11:45:44.838Z,21.86
2023-03-26T11:48:11.210Z,21.87
2023-03-26T11:50:37.558Z,21.87
2023-03-26T11:53:03.862Z,21.94
2023-03-26T11:55:30.226Z,21.87
2023-03-26T11:57:56.574Z,21.79
2023-03-26T12:00:22.931Z,21.82
2023-03-26T12:02:49.348Z,21.84
2023-03-26T12:05:15.654Z,21.85
2023-03-26T12:07:42.105Z,21.81
2023-03-26T12:10:17.640Z,21.77
2023-03-26T12:12:45.392Z,21.75
2023-03-26T12:15:11.685Z,21.72
2023-03-26T12:17:38.088Z,21.78
2023-03-26T12:20:04.431Z,21.76
2023-03-26T12:22:30.791Z,21.91
2023-03-26T12:24:57.125Z,22.04
2023-03-26T12:27:23.465Z,21.96
2023-03-26T12:29:49.805Z,21.94
2023-03-26T12:32:16.115Z,21.98
2023-03-26T12:34:42.415Z,21.92
2023-03-26T12:37:08.739Z,21.83
2023-03-26T12:40:07.270Z,21.84
2023-03-26T12:44:41.742Z,21.81
2023-03-26T12:45:07.696Z,21.87
2023-03-26T12:48:00.848Z,21.98
2023-03-26T12:50:34.647Z,21.95
2023-03-26T12:53:02.063Z,21.99
2023-03-26T12:55:28.381Z,21.99
2023-03-26T12:57:54.725Z,21.97
2023-03-26T13:00:21.062Z,21.98
2023-03-26T13:02:47.595Z,21.99
2023-03-26T13:05:14.064Z,21.91
2023-03-26T13:07:40.460Z,21.89
2023-03-26T13:10:06.772Z,21.97
2023-03-26T13:12:33.072Z,21.94
2023-03-26T13:14:59.423Z,21.93
2023-03-26T13:17:25.805Z,21.89
2023-03-26T13:19:52.107Z,21.93
2023-03-26T13:22:18.404Z,21.96
2023-03-26T13:24:44.766Z,21.87
2023-03-26T13:27:11.070Z,21.89
2023-03-26T13:29:37.367Z,21.93
2023-03-26T13:32:03.734Z,21.90
2023-03-26T13:34:30.043Z,21.97
2023-03-26T13:36:56.441Z,21.92
2023-03-26T13:39:22.811Z,21.90
2023-03-26T13:41:49.172Z,21.92
2023-03-26T13:44:15.551Z,21.85
2023-03-26T13:46:41.942Z,21.92
2023-03-26T13:49:08.317Z,21.90
2023-03-26T13:51:34.695Z,21.89
2023-03-26T13:54:01.015Z,21.87
2023-03-26T13:56:27.319Z,21.89
2023-03-26T13:58:53.613Z,21.97
2023-03-26T14:01:20.006Z,21.92
2023-03-26T14:03:46.405Z,21.88
2023-03-26T14:06:12.768Z,21.93
2023-03-26T14:08:39.110Z,21.97
2023-03-26T14:11:05.447Z,22.01
2023-03-26T14:13:31.763Z,21.93
2023-03-26T14:15:58.222Z,21.94
2023-03-26T14:18:24.541Z,21.99
2023-03-26T14:20:50.878Z,22.02
2023-03-26T14:23:17.214Z,22.03
2023-03-26T14:25:43.562Z,22.02
2023-03-26T14:28:09.918Z,21.93
2023-03-26T14:30:40.660Z,21.92
2023-03-26T14:33:07.021Z,21.99
2023-03-26T14:35:33.387Z,22.03
2023-03-26T14:38:00.038Z,21.97
2023-03-26T14:40:26.416Z,21.97
2023-03-26T14:42:54.537Z,21.90
2023-03-26T14:45:22.799Z,21.94
2023-03-26T14:47:49.276Z,21.97
2023-03-26T14:50:15.724Z,21.98
2023-03-26T14:52:42.101Z,22.01
2023-03-26T14:55:08.402Z,21.99
2023-03-26T14:57:34.736Z,21.97
2023-03-26T15:00:01.125Z,21.94
2023-03-26T15:02:27.545Z,21.96
2023-03-26T15:04:53.989Z,21.93
2023-03-26T15:07:20.331Z,21.92
2023-03-26T15:09:46.631Z,21.88
2023-03-26T15:12:13.673Z,21.92
2023-03-26T15:14:40.059Z,21.91
2023-03-26T15:17:06.449Z,21.90
2023-03-26T15:19:32.808Z,21.89
2023-03-26T15:21:59.124Z,21.89
2023-03-26T15:24:25.478Z,21.89
2023-03-26T15:26:51.827Z,21.92
2023-03-26T15:29:18.227Z,21.89
2023-03-26T15:31:44.613Z,21.87
2023-03-26T15:34:10.989Z,21.94
2023-03-26T15:36:37.682Z,21.87
2023-03-26T15:39:03.981Z,21.94
2023-03-26T15:41:30.330Z,21.93
2023-03-26T15:44:24.938Z,21.97
2023-03-26T15:46:44.182Z,21.93
2023-03-26T15:49:10.523Z,21.95
2023-03-26T15:51:47.410Z,21.94
2023-03-26T15:54:14.135Z,21.87
2023-03-26T15:56:40.587Z,21.91
2023-03-26T15:59:06.985Z,21.92
2023-03-26T16:01:33.337Z,21.86
2023-03-26T16:03:59.720Z,21.90
2023-03-26T16:06:26.061Z,21.90
2023-03-26T16:08:52.358Z,21.92
2023-03-26T16:11:18.879Z,21.92
2023-03-26T16:13:45.241Z,21.91
2023-03-26T16:16:11.677Z,21.87
2023-03-26T16:18:38.055Z,21.88
2023-03-26T16:21:04.506Z,21.93
2023-03-26T16:23:30.930Z,21.93
2023-03-26T16:25:57.232Z,21.88
2023-03-26T16:28:23.567Z,21.90
2023-03-26T16:30:49.885Z,21.86
2023-03-26T16:33:16.208Z,21.88
2023-03-26T16:35:42.597Z,21.85
2023-03-26T16:38:08.992Z,21.87
2023-03-26T16:40:35.327Z,21.86
2023-03-26T16:43:01.642Z,21.93
2023-03-26T16:45:27.936Z,21.82
2023-03-26T16:47:54.275Z,21.79
2023-03-26T16:50:20.672Z,21.78
2023-03-26T16:52:47.092Z,21.75
2023-03-26T16:55:13.470Z,21.80
2023-03-26T16:57:39.849Z,21.74
2023-03-26T17:00:07.389Z,21.84
2023-03-26T17:02:34.181Z,21.78
2023-03-26T17:05:00.620Z,21.85
2023-03-26T17:07:26.941Z,21.77
2023-03-26T17:09:53.239Z,21.85
2023-03-26T17:12:19.561Z,21.83
2023-03-26T17:14:45.888Z,21.81
2023-03-26T17:17:12.186Z,21.78
2023-03-26T17:19:38.517Z,21.80
2023-03-26T17:22:04.904Z,21.79
2023-03-26T17:24:31.254Z,21.80
2023-03-26T17:26:57.562Z,21.80
2023-03-26T17:29:23.867Z,21.71
2023-03-26T17:31:50.192Z,21.76
2023-03-26T17:34:16.585Z,21.78
2023-03-26T17:36:42.920Z,21.77
2023-03-26T17:39:09.234Z,21.76
2023-03-26T17:41:35.612Z,21.73
2023-03-26T17:44:01.965Z,21.74
2023-03-26T17:46:28.346Z,21.67
2023-03-26T17:48:54.697Z,21.71
2023-03-26T17:51:21.051Z,21.57
2023-03-26T17:53:47.430Z,21.71
2023-03-26T17:56:13.749Z,21.73
2023-03-26T17:58:40.041Z,21.69
2023-03-26T18:01:06.441Z,21.72
2023-03-26T18:03:32.823Z,21.70
2023-03-26T18:05:59.234Z,21.72
2023-03-26T18:08:25.684Z,21.71
2023-03-26T18:10:51.991Z,21.75
2023-03-26T18:13:18.342Z,21.71
2023-03-26T18:15:45.066Z,21.75
2023-03-26T18:18:11.501Z,21.64
2023-03-26T18:20:37.835Z,21.65
2023-03-26T18:23:04.189Z,21.62
2023-03-26T18:25:30.482Z,21.74
2023-03-26T18:27:56.835Z,21.58
2023-03-26T18:30:23.158Z,21.60
2023-03-26T18:32:49.472Z,21.64
2023-03-26T18:35:15.859Z,21.60
2023-03-26T18:37:42.255Z,21.62
2023-03-26T18:40:08.572Z,21.56
2023-03-26T18:42:34.879Z,21.66
2023-03-26T18:45:03.290Z,21.56
2023-03-26T18:47:31.110Z,21.67
2023-03-26T18:49:57.436Z,21.54
2023-03-26T18:52:23.805Z,21.65
2023-03-26T18:54:50.165Z,21.65
2023-03-26T18:57:16.638Z,21.66
2023-03-26T18:59:42.985Z,21.59
2023-03-26T19:02:09.467Z,21.56
2023-03-26T19:04:35.869Z,21.64
2023-03-26T19:07:02.190Z,21.56
2023-03-26T19:09:31.760Z,21.64
2023-03-26T19:11:58.879Z,21.63
2023-03-26T19:14:25.212Z,21.56
2023-03-26T19:16:51.772Z,21.60
2023-03-26T19:19:18.131Z,21.55
2023-03-26T19:21:44.424Z,21.63
2023-03-26T19:24:10.742Z,21.64
2023-03-26T19:26:37.046Z,21.59
2023-03-26T19:29:03.411Z,21.62
2023-03-26T19:31:29.736Z,21.65
2023-03-26T19:33:56.128Z,21.54
2023-03-26T19:36:22.617Z,21.57
2023-03-26T19:38:48.968Z,21.64
2023-03-26T19:41:15.294Z,21.52
2023-03-26T19:43:41.608Z,21.59
2023-03-26T19:46:08.149Z,21.53
2023-03-26T19:48:46.797Z,21.62
2023-03-26T19:51:13.463Z,21.60
2023-03-26T19:53:39.815Z,21.61
2023-03-26T19:56:06.427Z,21.62
2023-03-26T19:58:32.906Z,21.58
2023-03-26T20:00:59.515Z,21.68
2023-03-26T20:03:26.281Z,21.64
2023-03-26T20:05:52.911Z,21.66
2023-03-26T20:08:19.253Z,21.56
2023-03-26T20:10:45.579Z,21.62
2023-03-26T20:13:11.884Z,21.56
2023-03-26T20:15:38.186Z,21.55
2023-03-26T20:18:04.579Z,21.54
2023-03-26T20:20:30.904Z,21.59
2023-03-26T20:22:57.245Z,21.65
2023-03-26T20:25:23.563Z,21.54
2023-03-26T20:27:49.909Z,21.56
2023-03-26T20:30:19.058Z,21.47
2023-03-26T20:32:45.732Z,21.44
2023-03-26T20:35:12.465Z,21.54
2023-03-26T20:37:38.821Z,21.52
2023-03-26T20:40:05.198Z,21.46
2023-03-26T20:42:31.547Z,21.48
2023-03-26T20:44:57.857Z,21.50
2023-03-26T20:47:24.264Z,21.43
2023-03-26T20:49:50.604Z,21.44
2023-03-26T20:52:16.912Z,21.49
2023-03-26T20:54:43.227Z,21.54
2023-03-26T20:57:09.627Z,21.39
2023-03-26T20:59:36.124Z,21.40
2023-03-26T21:02:02.528Z,21.41
2023-03-26T21:04:28.920Z,21.47
2023-03-26T21:07:03.220Z,21.44
2023-03-26T21:09:33.853Z,21.36
2023-03-26T21:12:00.191Z,21.45
2023-03-26T21:14:26.547Z,21.45
2023-03-26T21:16:52.940Z,21.36
2023-03-26T21:19:19.362Z,21.35
2023-03-26T21:21:45.678Z,21.38
2023-03-26T21:24:12.019Z,21.40
2023-03-26T21:26:41.723Z,21.45
2023-03-26T21:29:08.313Z,21.47
2023-03-26T21:31:34.693Z,21.44
2023-03-26T21:34:01.064Z,21.47
2023-03-26T21:36:27.477Z,21.49
2023-03-26T21:38:53.865Z,21.43
2023-03-26T21:41:20.239Z,21.45
2023-03-26T21:43:46.585Z,21.46
2023-03-26T21:46:12.934Z,21.53
2023-03-26T21:48:39.333Z,21.55
2023-03-26T21:51:05.637Z,21.49
2023-03-26T21:53:31.981Z,21.49
2023-03-26T21:55:58.345Z,21.55
2023-03-26T21:58:24.705Z,21.49
2023-03-26T22:00:51.091Z,21.50
2023-03-26T22:03:17.527Z,21.53
2023-03-26T22:05:43.894Z,21.51
2023-03-26T22:08:10.240Z,21.50
2023-03-26T22:10:36.586Z,21.53
2023-03-26T22:13:02.921Z,21.48
2023-03-26T22:15:29.267Z,21.52
2023-03-26T22:17:55.725Z,21.48
2023-03-26T22:20:22.176Z,21.46
2023-03-26T22:22:48.544Z,21.52
2023-03-26T22:25:14.888Z,21.42
2023-03-26T22:27:43.849Z,21.44
2023-03-26T22:30:11.347Z,21.48
2023-03-26T22:32:37.653Z,21.53
2023-03-26T22:35:03.968Z,21.46
2023-03-26T22:37:30.278Z,21.47
2023-03-26T22:39:56.608Z,21.46
2023-03-26T22:42:22.938Z,21.52
2023-03-26T22:44:49.307Z,21.46
2023-03-26T22:47:15.606Z,21.42
2023-03-26T22:49:41.925Z,21.45
2023-03-26T22:52:08.226Z,21.46
2023-03-26T22:54:34.519Z,21.50
2023-03-26T22:57:00.901Z,21.46
2023-03-26T22:59:27.247Z,21.37
2023-03-26T23:01:53.632Z,21.44
2023-03-26T23:04:31.611Z,21.46
2023-03-26T23:06:58.641Z,21.48
2023-03-26T23:09:24.997Z,21.46
2023-03-26T23:11:51.318Z,21.46
2023-03-26T23:14:17.670Z,21.40
2023-03-26T23:16:43.979Z,21.42
2023-03-26T23:19:10.294Z,21.44
2023-03-26T23:21:36.662Z,21.52
2023-03-26T23:24:03.049Z,21.45
2023-03-26T23:26:35.001Z,21.43
2023-03-26T23:29:04.215Z,21.41
2023-03-26T23:31:30.634Z,21.37
2023-03-26T23:33:57.026Z,21.31
2023-03-26T23:36:23.374Z,21.28
2023-03-26T23:38:49.731Z,21.35
2023-03-26T23:41:16.106Z,21.41
2023-03-26T23:43:54.645Z,21.30
2023-03-26T23:46:21.746Z,21.35
2023-03-26T23:48:48.068Z,21.32
2023-03-26T23:51:14.406Z,21.39
2023-03-26T23:53:40.726Z,21.43
2023-03-26T23:56:07.053Z,21.44
2023-03-26T23:58:33.389Z,21.45
